Aviation Digital Data Service (ADDS)

Output produced by METARs form (0225 UTC 22 April 2019)
found at http://www.aviationweather.gov/metar/data/
 
METAR text: EKYT 220220Z AUTO 09006KT 9999 NCD 05/02 Q1020
Conditions at: EKYT (ALBORG , DK) observed 0220 UTC 22 April 2019
Temperature: 5.0°C (41°F)
Dewpoint: 2.0°C (36°F) [RH = 81%]
Pressure (altimeter): 30.12 inches Hg (1020.0 mb)
Winds: from the E (90 degrees) at 7 MPH (6 knots; 3.1 m/s)
Visibility: 6 or more miles (10+ km)
Ceiling: at least 12,000 feet AGL
Clouds: sky clear below 12,000 feet AGL
Weather: no significant weather observed at this time

METAR text: EKYT 220150Z AUTO 09006KT 9999 NCD 06/02 Q1020
Conditions at: EKYT (ALBORG , DK) observed 0150 UTC 22 April 2019
Temperature: 6.0°C (43°F)
Dewpoint: 2.0°C (36°F) [RH = 75%]
Pressure (altimeter): 30.12 inches Hg (1020.0 mb)
Winds: from the E (90 degrees) at 7 MPH (6 knots; 3.1 m/s)
Visibility: 6 or more miles (10+ km)
Ceiling: at least 12,000 feet AGL
Clouds: sky clear below 12,000 feet AGL
Weather: no significant weather observed at this time

METAR text: EKYT 220120Z AUTO 08004KT 9999 NCD 05/01 Q1020
Conditions at: EKYT (ALBORG , DK) observed 0120 UTC 22 April 2019
Temperature: 5.0°C (41°F)
Dewpoint: 1.0°C (34°F) [RH = 75%]
Pressure (altimeter): 30.12 inches Hg (1020.0 mb)
Winds: from the E (80 degrees) at 5 MPH (4 knots; 2.1 m/s)
Visibility: 6 or more miles (10+ km)
Ceiling: at least 12,000 feet AGL
Clouds: sky clear below 12,000 feet AGL
Weather: no significant weather observed at this time

METAR text: EKYT 220050Z AUTO 10003KT 9999 NCD 05/01 Q1020
Conditions at: EKYT (ALBORG , DK) observed 0050 UTC 22 April 2019
Temperature: 5.0°C (41°F)
Dewpoint: 1.0°C (34°F) [RH = 75%]
Pressure (altimeter): 30.12 inches Hg (1020.0 mb)
Winds: from the E (100 degrees) at 3 MPH (3 knots; 1.5 m/s)
Visibility: 6 or more miles (10+ km)
Ceiling: at least 12,000 feet AGL
Clouds: sky clear below 12,000 feet AGL
Weather: no significant weather observed at this time

METAR text: EKYT 220020Z AUTO 12003KT 9999 NCD 05/00 Q1020
Conditions at: EKYT (ALBORG , DK) observed 0020 UTC 22 April 2019
Temperature: 5.0°C (41°F)
Dewpoint: 0.0°C (32°F) [RH = 70%]
Pressure (altimeter): 30.12 inches Hg (1020.0 mb)
Winds: from the ESE (120 degrees) at 3 MPH (3 knots; 1.5 m/s)
Visibility: 6 or more miles (10+ km)
Ceiling: at least 12,000 feet AGL
Clouds: sky clear below 12,000 feet AGL
Weather: no significant weather observed at this time

METAR text: EKYT 212350Z AUTO 10004KT 9999 NCD 04/M01 Q1020
Conditions at: EKYT (ALBORG , DK) observed 2350 UTC 21 April 2019
Temperature: 4.0°C (39°F)
Dewpoint: -1.0°C (30°F) [RH = 70%]
Pressure (altimeter): 30.12 inches Hg (1020.0 mb)
Winds: from the E (100 degrees) at 5 MPH (4 knots; 2.1 m/s)
Visibility: 6 or more miles (10+ km)
Ceiling: at least 12,000 feet AGL
Clouds: sky clear below 12,000 feet AGL
Weather: no significant weather observed at this time

METAR text: EKYT 212320Z AUTO 09002KT 9999 NCD 04/M00 Q1021
Conditions at: EKYT (ALBORG , DK) observed 2320 UTC 21 April 2019
Temperature: 4.0°C (39°F)
Dewpoint: 0.0°C (32°F) [RH = 75%]
Pressure (altimeter): 30.15 inches Hg (1021.0 mb)
Winds: from the E (90 degrees) at 2 MPH (2 knots; 1.0 m/s)
Visibility: 6 or more miles (10+ km)
Ceiling: at least 12,000 feet AGL
Clouds: sky clear below 12,000 feet AGL
Weather: no significant weather observed at this time

METAR text: EKYT 212250Z AUTO 00000KT 9999 NCD 05/M00 Q1021
Conditions at: EKYT (ALBORG , DK) observed 2250 UTC 21 April 2019
Temperature: 5.0°C (41°F)
Dewpoint: 0.0°C (32°F) [RH = 70%]
Pressure (altimeter): 30.15 inches Hg (1021.0 mb)
Winds: calm
Visibility: 6 or more miles (10+ km)
Ceiling: at least 12,000 feet AGL
Clouds: sky clear below 12,000 feet AGL
Weather: no significant weather observed at this time

METAR text: EKYT 212220Z AUTO 03004KT 9999 NCD 07/M00 Q1021
Conditions at: EKYT (ALBORG , DK) observed 2220 UTC 21 April 2019
Temperature: 7.0°C (45°F)
Dewpoint: 0.0°C (32°F) [RH = 61%]
Pressure (altimeter): 30.15 inches Hg (1021.0 mb)
Winds: from the NNE (30 degrees) at 5 MPH (4 knots; 2.1 m/s)
Visibility: 6 or more miles (10+ km)
Ceiling: at least 12,000 feet AGL
Clouds: sky clear below 12,000 feet AGL
Weather: no significant weather observed at this time

METAR text: EKYT 212150Z AUTO 03004KT 9999 NCD 07/00 Q1021
Conditions at: EKYT (ALBORG , DK) observed 2150 UTC 21 April 2019
Temperature: 7.0°C (45°F)
Dewpoint: 0.0°C (32°F) [RH = 61%]
Pressure (altimeter): 30.15 inches Hg (1021.0 mb)
Winds: from the NNE (30 degrees) at 5 MPH (4 knots; 2.1 m/s)
Visibility: 6 or more miles (10+ km)
Ceiling: at least 12,000 feet AGL
Clouds: sky clear below 12,000 feet AGL
Weather: no significant weather observed at this time

METAR text: EKYT 212120Z AUTO 04002KT 9999 NCD 07/00 Q1021
Conditions at: EKYT (ALBORG , DK) observed 2120 UTC 21 April 2019
Temperature: 7.0°C (45°F)
Dewpoint: 0.0°C (32°F) [RH = 61%]
Pressure (altimeter): 30.15 inches Hg (1021.0 mb)
Winds: from the NE (40 degrees) at 2 MPH (2 knots; 1.0 m/s)
Visibility: 6 or more miles (10+ km)
Ceiling: at least 12,000 feet AGL
Clouds: sky clear below 12,000 feet AGL
Weather: no significant weather observed at this time

METAR text: EKYT 212050Z AUTO 00000KT 9999 NCD 07/01 Q1021
Conditions at: EKYT (ALBORG , DK) observed 2050 UTC 21 April 2019
Temperature: 7.0°C (45°F)
Dewpoint: 1.0°C (34°F) [RH = 66%]
Pressure (altimeter): 30.15 inches Hg (1021.0 mb)
Winds: calm
Visibility: 6 or more miles (10+ km)
Ceiling: at least 12,000 feet AGL
Clouds: sky clear below 12,000 feet AGL
Weather: no significant weather observed at this time

METAR text: EKYT 212020Z AUTO 36002KT 9999 NCD 09/00 Q1022
Conditions at: EKYT (ALBORG , DK) observed 2020 UTC 21 April 2019
Temperature: 9.0°C (48°F)
Dewpoint: 0.0°C (32°F) [RH = 53%]
Pressure (altimeter): 30.18 inches Hg (1022.0 mb)
Winds: from the N (360 degrees) at 2 MPH (2 knots; 1.0 m/s)
Visibility: 6 or more miles (10+ km)
Ceiling: at least 12,000 feet AGL
Clouds: sky clear below 12,000 feet AGL
Weather: no significant weather observed at this time

METAR text: EKYT 211950Z AUTO 36002KT 9999 NCD 10/00 Q1021
Conditions at: EKYT (ALBORG , DK) observed 1950 UTC 21 April 2019
Temperature: 10.0°C (50°F)
Dewpoint: 0.0°C (32°F) [RH = 50%]
Pressure (altimeter): 30.15 inches Hg (1021.0 mb)
Winds: from the N (360 degrees) at 2 MPH (2 knots; 1.0 m/s)
Visibility: 6 or more miles (10+ km)
Ceiling: at least 12,000 feet AGL
Clouds: sky clear below 12,000 feet AGL
Weather: no significant weather observed at this time

METAR text: EKYT 211920Z AUTO 02002KT 9999 NCD 11/00 Q1021
Conditions at: EKYT (ALBORG , DK) observed 1920 UTC 21 April 2019
Temperature: 11.0°C (52°F)
Dewpoint: 0.0°C (32°F) [RH = 47%]
Pressure (altimeter): 30.15 inches Hg (1021.0 mb)
Winds: from the NNE (20 degrees) at 2 MPH (2 knots; 1.0 m/s)
Visibility: 6 or more miles (10+ km)
Ceiling: at least 12,000 feet AGL
Clouds: sky clear below 12,000 feet AGL
Weather: no significant weather observed at this time

METAR text: EKYT 211850Z AUTO 08002KT 9999 NCD 12/00 Q1021
Conditions at: EKYT (ALBORG , DK) observed 1850 UTC 21 April 2019
Temperature: 12.0°C (54°F)
Dewpoint: 0.0°C (32°F) [RH = 44%]
Pressure (altimeter): 30.15 inches Hg (1021.0 mb)
Winds: from the E (80 degrees) at 2 MPH (2 knots; 1.0 m/s)
Visibility: 6 or more miles (10+ km)
Ceiling: at least 12,000 feet AGL
Clouds: sky clear below 12,000 feet AGL
Weather: no significant weather observed at this time

METAR text: EKYT 211820Z AUTO 00000KT 9999 NCD 13/M01 Q1021
Conditions at: EKYT (ALBORG , DK) observed 1820 UTC 21 April 2019
Temperature: 13.0°C (55°F)
Dewpoint: -1.0°C (30°F) [RH = 38%]
Pressure (altimeter): 30.15 inches Hg (1021.0 mb)
Winds: calm
Visibility: 6 or more miles (10+ km)
Ceiling: at least 12,000 feet AGL
Clouds: sky clear below 12,000 feet AGL
Weather: no significant weather observed at this time

METAR text: EKYT 211750Z AUTO 35004KT 320V020 9999 NCD 14/00 Q1021
Conditions at: EKYT (ALBORG , DK) observed 1750 UTC 21 April 2019
Temperature: 14.0°C (57°F)
Dewpoint: 0.0°C (32°F) [RH = 38%]
Pressure (altimeter): 30.15 inches Hg (1021.0 mb)
Winds: from the N (350 degrees) at 5 MPH (4 knots; 2.1 m/s)
Visibility: 6 or more miles (10+ km)
Ceiling: at least 12,000 feet AGL
Clouds: sky clear below 12,000 feet AGL
Weather: no significant weather observed at this time

METAR text: EKYT 211720Z AUTO 34005KT 290V020 9999 NCD 15/01 Q1021
Conditions at: EKYT (ALBORG , DK) observed 1720 UTC 21 April 2019
Temperature: 15.0°C (59°F)
Dewpoint: 1.0°C (34°F) [RH = 39%]
Pressure (altimeter): 30.15 inches Hg (1021.0 mb)
Winds: from the NNW (340 degrees) at 6 MPH (5 knots; 2.6 m/s)
Visibility: 6 or more miles (10+ km)
Ceiling: at least 12,000 feet AGL
Clouds: sky clear below 12,000 feet AGL
Weather: no significant weather observed at this time

METAR text: EKYT 211650Z AUTO 32005KT 9999 NCD 16/00 Q1021
Conditions at: EKYT (ALBORG , DK) observed 1650 UTC 21 April 2019
Temperature: 16.0°C (61°F)
Dewpoint: 0.0°C (32°F) [RH = 34%]
Pressure (altimeter): 30.15 inches Hg (1021.0 mb)
Winds: from the NW (320 degrees) at 6 MPH (5 knots; 2.6 m/s)
Visibility: 6 or more miles (10+ km)
Ceiling: at least 12,000 feet AGL
Clouds: sky clear below 12,000 feet AGL
Weather: no significant weather observed at this time

METAR text: EKYT 211620Z AUTO 32006KT 300V010 9999 NCD 16/01 Q1022
Conditions at: EKYT (ALBORG , DK) observed 1620 UTC 21 April 2019
Temperature: 16.0°C (61°F)
Dewpoint: 1.0°C (34°F) [RH = 36%]
Pressure (altimeter): 30.18 inches Hg (1022.0 mb)
Winds: from the NW (320 degrees) at 7 MPH (6 knots; 3.1 m/s)
Visibility: 6 or more miles (10+ km)
Ceiling: at least 12,000 feet AGL
Clouds: sky clear below 12,000 feet AGL
Weather: no significant weather observed at this time

METAR text: EKYT 211550Z AUTO 31005KT 280V010 9999 NCD 17/01 Q1022
Conditions at: EKYT (ALBORG , DK) observed 1550 UTC 21 April 2019
Temperature: 17.0°C (63°F)
Dewpoint: 1.0°C (34°F) [RH = 34%]
Pressure (altimeter): 30.18 inches Hg (1022.0 mb)
Winds: from the NW (310 degrees) at 6 MPH (5 knots; 2.6 m/s)
Visibility: 6 or more miles (10+ km)
Ceiling: at least 12,000 feet AGL
Clouds: sky clear below 12,000 feet AGL
Weather: no significant weather observed at this time

METAR text: EKYT 211520Z AUTO 32006KT 9999 NCD 17/01 Q1022
Conditions at: EKYT (ALBORG , DK) observed 1520 UTC 21 April 2019
Temperature: 17.0°C (63°F)
Dewpoint: 1.0°C (34°F) [RH = 34%]
Pressure (altimeter): 30.18 inches Hg (1022.0 mb)
Winds: from the NW (320 degrees) at 7 MPH (6 knots; 3.1 m/s)
Visibility: 6 or more miles (10+ km)
Ceiling: at least 12,000 feet AGL
Clouds: sky clear below 12,000 feet AGL
Weather: no significant weather observed at this time

METAR text: EKYT 211450Z AUTO 32006KT 290V010 9999 NCD 17/01 Q1022
Conditions at: EKYT (ALBORG , DK) observed 1450 UTC 21 April 2019
Temperature: 17.0°C (63°F)
Dewpoint: 1.0°C (34°F) [RH = 34%]
Pressure (altimeter): 30.18 inches Hg (1022.0 mb)
Winds: from the NW (320 degrees) at 7 MPH (6 knots; 3.1 m/s)
Visibility: 6 or more miles (10+ km)
Ceiling: at least 12,000 feet AGL
Clouds: sky clear below 12,000 feet AGL
Weather: no significant weather observed at this time

METAR text: EKYT 211420Z AUTO 33006KT 290V360 9999 NCD 17/01 Q1022
Conditions at: EKYT (ALBORG , DK) observed 1420 UTC 21 April 2019
Temperature: 17.0°C (63°F)
Dewpoint: 1.0°C (34°F) [RH = 34%]
Pressure (altimeter): 30.18 inches Hg (1022.0 mb)
Winds: from the NNW (330 degrees) at 7 MPH (6 knots; 3.1 m/s)
Visibility: 6 or more miles (10+ km)
Ceiling: at least 12,000 feet AGL
Clouds: sky clear below 12,000 feet AGL
Weather: no significant weather observed at this time

METAR text: EKYT 211350Z AUTO 33005KT 300V020 9999 FEW230/// 18/01 Q1023
Conditions at: EKYT (ALBORG , DK) observed 1350 UTC 21 April 2019
Temperature: 18.0°C (64°F)
Dewpoint: 1.0°C (34°F) [RH = 32%]
Pressure (altimeter): 30.21 inches Hg (1023.0 mb)
Winds: from the NNW (330 degrees) at 6 MPH (5 knots; 2.6 m/s)
Visibility: 6 or more miles (10+ km)
Ceiling: at least 12,000 feet AGL
Clouds: few clouds at 23000 feet AGL
Weather: no significant weather observed at this time

METAR text: EKYT 211320Z AUTO VRB05KT 9999 NCD 18/02 Q1023
Conditions at: EKYT (ALBORG , DK) observed 1320 UTC 21 April 2019
Temperature: 18.0°C (64°F)
Dewpoint: 2.0°C (36°F) [RH = 34%]
Pressure (altimeter): 30.21 inches Hg (1023.0 mb)
Winds: variable direction winds at 6 MPH (5 knots; 2.6 m/s)
Visibility: 6 or more miles (10+ km)
Ceiling: at least 12,000 feet AGL
Clouds: sky clear below 12,000 feet AGL
Weather: no significant weather observed at this time

METAR text: EKYT 211250Z AUTO 28006KT 240V350 9999 NCD 17/01 Q1023
Conditions at: EKYT (ALBORG , DK) observed 1250 UTC 21 April 2019
Temperature: 17.0°C (63°F)
Dewpoint: 1.0°C (34°F) [RH = 34%]
Pressure (altimeter): 30.21 inches Hg (1023.0 mb)
Winds: from the W (280 degrees) at 7 MPH (6 knots; 3.1 m/s)
Visibility: 6 or more miles (10+ km)
Ceiling: at least 12,000 feet AGL
Clouds: sky clear below 12,000 feet AGL
Weather: no significant weather observed at this time

METAR text: EKYT 211220Z AUTO 27006KT 220V330 9999 NCD 17/02 Q1024
Conditions at: EKYT (ALBORG , DK) observed 1220 UTC 21 April 2019
Temperature: 17.0°C (63°F)
Dewpoint: 2.0°C (36°F) [RH = 36%]
Pressure (altimeter): 30.24 inches Hg (1024.0 mb)
Winds: from the W (270 degrees) at 7 MPH (6 knots; 3.1 m/s)
Visibility: 6 or more miles (10+ km)
Ceiling: at least 12,000 feet AGL
Clouds: sky clear below 12,000 feet AGL
Weather: no significant weather observed at this time

METAR text: EKYT 211150Z AUTO 30006KT 260V010 9999 NCD 17/02 Q1024
Conditions at: EKYT (ALBORG , DK) observed 1150 UTC 21 April 2019
Temperature: 17.0°C (63°F)
Dewpoint: 2.0°C (36°F) [RH = 36%]
Pressure (altimeter): 30.24 inches Hg (1024.0 mb)
Winds: from the WNW (300 degrees) at 7 MPH (6 knots; 3.1 m/s)
Visibility: 6 or more miles (10+ km)
Ceiling: at least 12,000 feet AGL
Clouds: sky clear below 12,000 feet AGL
Weather: no significant weather observed at this time

METAR text: EKYT 211120Z AUTO 24010KT 9999 NCD 17/04 Q1024
Conditions at: EKYT (ALBORG , DK) observed 1120 UTC 21 April 2019
Temperature: 17.0°C (63°F)
Dewpoint: 4.0°C (39°F) [RH = 42%]
Pressure (altimeter): 30.24 inches Hg (1024.0 mb)
Winds: from the WSW (240 degrees) at 12 MPH (10 knots; 5.1 m/s)
Visibility: 6 or more miles (10+ km)
Ceiling: at least 12,000 feet AGL
Clouds: sky clear below 12,000 feet AGL
Weather: no significant weather observed at this time

METAR text: EKYT 211050Z AUTO 23010KT 9999 NCD 16/04 Q1024
Conditions at: EKYT (ALBORG , DK) observed 1050 UTC 21 April 2019
Temperature: 16.0°C (61°F)
Dewpoint: 4.0°C (39°F) [RH = 45%]
Pressure (altimeter): 30.24 inches Hg (1024.0 mb)
Winds: from the SW (230 degrees) at 12 MPH (10 knots; 5.1 m/s)
Visibility: 6 or more miles (10+ km)
Ceiling: at least 12,000 feet AGL
Clouds: sky clear below 12,000 feet AGL
Weather: no significant weather observed at this time

METAR text: EKYT 211020Z AUTO 23010KT 9999 NCD 16/05 Q1024
Conditions at: EKYT (ALBORG , DK) observed 1020 UTC 21 April 2019
Temperature: 16.0°C (61°F)
Dewpoint: 5.0°C (41°F) [RH = 48%]
Pressure (altimeter): 30.24 inches Hg (1024.0 mb)
Winds: from the SW (230 degrees) at 12 MPH (10 knots; 5.1 m/s)
Visibility: 6 or more miles (10+ km)
Ceiling: at least 12,000 feet AGL
Clouds: sky clear below 12,000 feet AGL
Weather: no significant weather observed at this time

METAR text: EKYT 210950Z AUTO 23010KT 9999 NCD 15/04 Q1025
Conditions at: EKYT (ALBORG , DK) observed 0950 UTC 21 April 2019
Temperature: 15.0°C (59°F)
Dewpoint: 4.0°C (39°F) [RH = 48%]
Pressure (altimeter): 30.27 inches Hg (1025.0 mb)
Winds: from the SW (230 degrees) at 12 MPH (10 knots; 5.1 m/s)
Visibility: 6 or more miles (10+ km)
Ceiling: at least 12,000 feet AGL
Clouds: sky clear below 12,000 feet AGL
Weather: no significant weather observed at this time

METAR text: EKYT 210920Z AUTO 23010KT 9999 NCD 14/04 Q1025
Conditions at: EKYT (ALBORG , DK) observed 0920 UTC 21 April 2019
Temperature: 14.0°C (57°F)
Dewpoint: 4.0°C (39°F) [RH = 51%]
Pressure (altimeter): 30.27 inches Hg (1025.0 mb)
Winds: from the SW (230 degrees) at 12 MPH (10 knots; 5.1 m/s)
Visibility: 6 or more miles (10+ km)
Ceiling: at least 12,000 feet AGL
Clouds: sky clear below 12,000 feet AGL
Weather: no significant weather observed at this time

METAR text: EKYT 210850Z AUTO 24009KT 9999 NCD 14/04 Q1025
Conditions at: EKYT (ALBORG , DK) observed 0850 UTC 21 April 2019
Temperature: 14.0°C (57°F)
Dewpoint: 4.0°C (39°F) [RH = 51%]
Pressure (altimeter): 30.27 inches Hg (1025.0 mb)
Winds: from the WSW (240 degrees) at 10 MPH (9 knots; 4.6 m/s)
Visibility: 6 or more miles (10+ km)
Ceiling: at least 12,000 feet AGL
Clouds: sky clear below 12,000 feet AGL
Weather: no significant weather observed at this time

METAR text: EKYT 210820Z AUTO 24008KT 9999 NCD 13/06 Q1025
Conditions at: EKYT (ALBORG , DK) observed 0820 UTC 21 April 2019
Temperature: 13.0°C (55°F)
Dewpoint: 6.0°C (43°F) [RH = 62%]
Pressure (altimeter): 30.27 inches Hg (1025.0 mb)
Winds: from the WSW (240 degrees) at 9 MPH (8 knots; 4.1 m/s)
Visibility: 6 or more miles (10+ km)
Ceiling: at least 12,000 feet AGL
Clouds: sky clear below 12,000 feet AGL
Weather: no significant weather observed at this time

METAR text: EKYT 210750Z AUTO 24009KT 9999 NCD 12/05 Q1025
Conditions at: EKYT (ALBORG , DK) observed 0750 UTC 21 April 2019
Temperature: 12.0°C (54°F)
Dewpoint: 5.0°C (41°F) [RH = 62%]
Pressure (altimeter): 30.27 inches Hg (1025.0 mb)
Winds: from the WSW (240 degrees) at 10 MPH (9 knots; 4.6 m/s)
Visibility: 6 or more miles (10+ km)
Ceiling: at least 12,000 feet AGL
Clouds: sky clear below 12,000 feet AGL
Weather: no significant weather observed at this time

METAR text: EKYT 210720Z AUTO 24008KT 9999 NCD 11/05 Q1025
Conditions at: EKYT (ALBORG , DK) observed 0720 UTC 21 April 2019
Temperature: 11.0°C (52°F)
Dewpoint: 5.0°C (41°F) [RH = 66%]
Pressure (altimeter): 30.27 inches Hg (1025.0 mb)
Winds: from the WSW (240 degrees) at 9 MPH (8 knots; 4.1 m/s)
Visibility: 6 or more miles (10+ km)
Ceiling: at least 12,000 feet AGL
Clouds: sky clear below 12,000 feet AGL
Weather: no significant weather observed at this time

METAR text: EKYT 210650Z AUTO 24008KT 9999 NCD 10/04 Q1026
Conditions at: EKYT (ALBORG , DK) observed 0650 UTC 21 April 2019
Temperature: 10.0°C (50°F)
Dewpoint: 4.0°C (39°F) [RH = 66%]
Pressure (altimeter): 30.30 inches Hg (1026.0 mb)
Winds: from the WSW (240 degrees) at 9 MPH (8 knots; 4.1 m/s)
Visibility: 6 or more miles (10+ km)
Ceiling: at least 12,000 feet AGL
Clouds: sky clear below 12,000 feet AGL
Weather: no significant weather observed at this time

METAR text: EKYT 210620Z AUTO 24007KT 9999 NCD 09/04 Q1026
Conditions at: EKYT (ALBORG , DK) observed 0620 UTC 21 April 2019
Temperature: 9.0°C (48°F)
Dewpoint: 4.0°C (39°F) [RH = 71%]
Pressure (altimeter): 30.30 inches Hg (1026.0 mb)
Winds: from the WSW (240 degrees) at 8 MPH (7 knots; 3.6 m/s)
Visibility: 6 or more miles (10+ km)
Ceiling: at least 12,000 feet AGL
Clouds: sky clear below 12,000 feet AGL
Weather: no significant weather observed at this time

METAR text: EKYT 210550Z AUTO 23005KT 9999 NCD 08/04 Q1026
Conditions at: EKYT (ALBORG , DK) observed 0550 UTC 21 April 2019
Temperature: 8.0°C (46°F)
Dewpoint: 4.0°C (39°F) [RH = 76%]
Pressure (altimeter): 30.30 inches Hg (1026.0 mb)
Winds: from the SW (230 degrees) at 6 MPH (5 knots; 2.6 m/s)
Visibility: 6 or more miles (10+ km)
Ceiling: at least 12,000 feet AGL
Clouds: sky clear below 12,000 feet AGL
Weather: no significant weather observed at this time

METAR text: EKYT 210520Z AUTO 22006KT 9999 NCD 06/02 Q1026
Conditions at: EKYT (ALBORG , DK) observed 0520 UTC 21 April 2019
Temperature: 6.0°C (43°F)
Dewpoint: 2.0°C (36°F) [RH = 75%]
Pressure (altimeter): 30.30 inches Hg (1026.0 mb)
Winds: from the SW (220 degrees) at 7 MPH (6 knots; 3.1 m/s)
Visibility: 6 or more miles (10+ km)
Ceiling: at least 12,000 feet AGL
Clouds: sky clear below 12,000 feet AGL
Weather: no significant weather observed at this time

METAR text: EKYT 210450Z AUTO 22005KT 9999 NCD 04/01 Q1026
Conditions at: EKYT (ALBORG , DK) observed 0450 UTC 21 April 2019
Temperature: 4.0°C (39°F)
Dewpoint: 1.0°C (34°F) [RH = 81%]
Pressure (altimeter): 30.30 inches Hg (1026.0 mb)
Winds: from the SW (220 degrees) at 6 MPH (5 knots; 2.6 m/s)
Visibility: 6 or more miles (10+ km)
Ceiling: at least 12,000 feet AGL
Clouds: sky clear below 12,000 feet AGL
Weather: no significant weather observed at this time

METAR text: EKYT 210420Z AUTO 22005KT 9999 NCD 04/01 Q1026
Conditions at: EKYT (ALBORG , DK) observed 0420 UTC 21 April 2019
Temperature: 4.0°C (39°F)
Dewpoint: 1.0°C (34°F) [RH = 81%]
Pressure (altimeter): 30.30 inches Hg (1026.0 mb)
Winds: from the SW (220 degrees) at 6 MPH (5 knots; 2.6 m/s)
Visibility: 6 or more miles (10+ km)
Ceiling: at least 12,000 feet AGL
Clouds: sky clear below 12,000 feet AGL
Weather: no significant weather observed at this time

METAR text: EKYT 210350Z AUTO 22005KT 9999 NCD 04/00 Q1026
Conditions at: EKYT (ALBORG , DK) observed 0350 UTC 21 April 2019
Temperature: 4.0°C (39°F)
Dewpoint: 0.0°C (32°F) [RH = 75%]
Pressure (altimeter): 30.30 inches Hg (1026.0 mb)
Winds: from the SW (220 degrees) at 6 MPH (5 knots; 2.6 m/s)
Visibility: 6 or more miles (10+ km)
Ceiling: at least 12,000 feet AGL
Clouds: sky clear below 12,000 feet AGL
Weather: no significant weather observed at this time

METAR text: EKYT 210320Z AUTO 21003KT 9999 NCD 04/00 Q1027
Conditions at: EKYT (ALBORG , DK) observed 0320 UTC 21 April 2019
Temperature: 4.0°C (39°F)
Dewpoint: 0.0°C (32°F) [RH = 75%]
Pressure (altimeter): 30.32 inches Hg (1027.0 mb)
Winds: from the SSW (210 degrees) at 3 MPH (3 knots; 1.5 m/s)
Visibility: 6 or more miles (10+ km)
Ceiling: at least 12,000 feet AGL
Clouds: sky clear below 12,000 feet AGL
Weather: no significant weather observed at this time

METAR text: EKYT 210250Z AUTO 21002KT 9999 NCD 04/02 Q1027
Conditions at: EKYT (ALBORG , DK) observed 0250 UTC 21 April 2019
Temperature: 4.0°C (39°F)
Dewpoint: 2.0°C (36°F) [RH = 87%]
Pressure (altimeter): 30.32 inches Hg (1027.0 mb)
Winds: from the SSW (210 degrees) at 2 MPH (2 knots; 1.0 m/s)
Visibility: 6 or more miles (10+ km)
Ceiling: at least 12,000 feet AGL
Clouds: sky clear below 12,000 feet AGL
Weather: no significant weather observed at this time

METAR text: EKYT 210220Z AUTO 21003KT 9999 NCD 03/01 Q1027
Conditions at: EKYT (ALBORG , DK) observed 0220 UTC 21 April 2019
Temperature: 3.0°C (37°F)
Dewpoint: 1.0°C (34°F) [RH = 87%]
Pressure (altimeter): 30.32 inches Hg (1027.0 mb)
Winds: from the SSW (210 degrees) at 3 MPH (3 knots; 1.5 m/s)
Visibility: 6 or more miles (10+ km)
Ceiling: at least 12,000 feet AGL
Clouds: sky clear below 12,000 feet AGL
Weather: no significant weather observed at this time

METAR text: EKYT 210150Z AUTO 20004KT 9999 NCD 03/01 Q1028
Conditions at: EKYT (ALBORG , DK) observed 0150 UTC 21 April 2019
Temperature: 3.0°C (37°F)
Dewpoint: 1.0°C (34°F) [RH = 87%]
Pressure (altimeter): 30.35 inches Hg (1028.0 mb)
Winds: from the SSW (200 degrees) at 5 MPH (4 knots; 2.1 m/s)
Visibility: 6 or more miles (10+ km)
Ceiling: at least 12,000 feet AGL
Clouds: sky clear below 12,000 feet AGL
Weather: no significant weather observed at this time

METAR text: EKYT 210120Z AUTO 20005KT 9999 NCD 03/01 Q1028
Conditions at: EKYT (ALBORG , DK) observed 0120 UTC 21 April 2019
Temperature: 3.0°C (37°F)
Dewpoint: 1.0°C (34°F) [RH = 87%]
Pressure (altimeter): 30.35 inches Hg (1028.0 mb)
Winds: from the SSW (200 degrees) at 6 MPH (5 knots; 2.6 m/s)
Visibility: 6 or more miles (10+ km)
Ceiling: at least 12,000 feet AGL
Clouds: sky clear below 12,000 feet AGL
Weather: no significant weather observed at this time

METAR text: EKYT 210050Z AUTO 23002KT 9999 NCD 05/02 Q1028
Conditions at: EKYT (ALBORG , DK) observed 0050 UTC 21 April 2019
Temperature: 5.0°C (41°F)
Dewpoint: 2.0°C (36°F) [RH = 81%]
Pressure (altimeter): 30.35 inches Hg (1028.0 mb)
Winds: from the SW (230 degrees) at 2 MPH (2 knots; 1.0 m/s)
Visibility: 6 or more miles (10+ km)
Ceiling: at least 12,000 feet AGL
Clouds: sky clear below 12,000 feet AGL
Weather: no significant weather observed at this time

METAR text: EKYT 210020Z AUTO 23002KT 9999 NCD 05/04 Q1028
Conditions at: EKYT (ALBORG , DK) observed 0020 UTC 21 April 2019
Temperature: 5.0°C (41°F)
Dewpoint: 4.0°C (39°F) [RH = 93%]
Pressure (altimeter): 30.35 inches Hg (1028.0 mb)
Winds: from the SW (230 degrees) at 2 MPH (2 knots; 1.0 m/s)
Visibility: 6 or more miles (10+ km)
Ceiling: at least 12,000 feet AGL
Clouds: sky clear below 12,000 feet AGL
Weather: no significant weather observed at this time

METAR text: EKYT 202350Z AUTO 18005KT 9999 NCD 03/02 Q1029
Conditions at: EKYT (ALBORG , DK) observed 2350 UTC 20 April 2019
Temperature: 3.0°C (37°F)
Dewpoint: 2.0°C (36°F) [RH = 93%]
Pressure (altimeter): 30.38 inches Hg (1029.0 mb)
Winds: from the S (180 degrees) at 6 MPH (5 knots; 2.6 m/s)
Visibility: 6 or more miles (10+ km)
Ceiling: at least 12,000 feet AGL
Clouds: sky clear below 12,000 feet AGL
Weather: no significant weather observed at this time

METAR text: EKYT 202320Z AUTO 21002KT 9999 NCD 05/02 Q1029
Conditions at: EKYT (ALBORG , DK) observed 2320 UTC 20 April 2019
Temperature: 5.0°C (41°F)
Dewpoint: 2.0°C (36°F) [RH = 81%]
Pressure (altimeter): 30.38 inches Hg (1029.0 mb)
Winds: from the SSW (210 degrees) at 2 MPH (2 knots; 1.0 m/s)
Visibility: 6 or more miles (10+ km)
Ceiling: at least 12,000 feet AGL
Clouds: sky clear below 12,000 feet AGL
Weather: no significant weather observed at this time

METAR text: EKYT 202250Z AUTO 00000KT 9999 NCD 06/03 Q1029
Conditions at: EKYT (ALBORG , DK) observed 2250 UTC 20 April 2019
Temperature: 6.0°C (43°F)
Dewpoint: 3.0°C (37°F) [RH = 81%]
Pressure (altimeter): 30.38 inches Hg (1029.0 mb)
Winds: calm
Visibility: 6 or more miles (10+ km)
Ceiling: at least 12,000 feet AGL
Clouds: sky clear below 12,000 feet AGL
Weather: no significant weather observed at this time

METAR text: EKYT 202220Z AUTO 00000KT 9999 NCD 06/02 Q1030
Conditions at: EKYT (ALBORG , DK) observed 2220 UTC 20 April 2019
Temperature: 6.0°C (43°F)
Dewpoint: 2.0°C (36°F) [RH = 75%]
Pressure (altimeter): 30.41 inches Hg (1030.0 mb)
Winds: calm
Visibility: 6 or more miles (10+ km)
Ceiling: at least 12,000 feet AGL
Clouds: sky clear below 12,000 feet AGL
Weather: no significant weather observed at this time

METAR text: EKYT 202150Z AUTO 00000KT 9999 NCD 06/01 Q1030
Conditions at: EKYT (ALBORG , DK) observed 2150 UTC 20 April 2019
Temperature: 6.0°C (43°F)
Dewpoint: 1.0°C (34°F) [RH = 70%]
Pressure (altimeter): 30.41 inches Hg (1030.0 mb)
Winds: calm
Visibility: 6 or more miles (10+ km)
Ceiling: at least 12,000 feet AGL
Clouds: sky clear below 12,000 feet AGL
Weather: no significant weather observed at this time

METAR text: EKYT 202120Z AUTO 00000KT 9999 NCD 06/01 Q1030
Conditions at: EKYT (ALBORG , DK) observed 2120 UTC 20 April 2019
Temperature: 6.0°C (43°F)
Dewpoint: 1.0°C (34°F) [RH = 70%]
Pressure (altimeter): 30.41 inches Hg (1030.0 mb)
Winds: calm
Visibility: 6 or more miles (10+ km)
Ceiling: at least 12,000 feet AGL
Clouds: sky clear below 12,000 feet AGL
Weather: no significant weather observed at this time

METAR text: EKYT 202050Z AUTO 27002KT 9999 NCD 08/02 Q1030
Conditions at: EKYT (ALBORG , DK) observed 2050 UTC 20 April 2019
Temperature: 8.0°C (46°F)
Dewpoint: 2.0°C (36°F) [RH = 66%]
Pressure (altimeter): 30.41 inches Hg (1030.0 mb)
Winds: from the W (270 degrees) at 2 MPH (2 knots; 1.0 m/s)
Visibility: 6 or more miles (10+ km)
Ceiling: at least 12,000 feet AGL
Clouds: sky clear below 12,000 feet AGL
Weather: no significant weather observed at this time

METAR text: EKYT 202020Z AUTO 29002KT 9999 NCD 09/02 Q1030
Conditions at: EKYT (ALBORG , DK) observed 2020 UTC 20 April 2019
Temperature: 9.0°C (48°F)
Dewpoint: 2.0°C (36°F) [RH = 61%]
Pressure (altimeter): 30.41 inches Hg (1030.0 mb)
Winds: from the WNW (290 degrees) at 2 MPH (2 knots; 1.0 m/s)
Visibility: 6 or more miles (10+ km)
Ceiling: at least 12,000 feet AGL
Clouds: sky clear below 12,000 feet AGL
Weather: no significant weather observed at this time

METAR text: EKYT 201950Z AUTO 29002KT 9999 NCD 09/02 Q1030
Conditions at: EKYT (ALBORG , DK) observed 1950 UTC 20 April 2019
Temperature: 9.0°C (48°F)
Dewpoint: 2.0°C (36°F) [RH = 61%]
Pressure (altimeter): 30.41 inches Hg (1030.0 mb)
Winds: from the WNW (290 degrees) at 2 MPH (2 knots; 1.0 m/s)
Visibility: 6 or more miles (10+ km)
Ceiling: at least 12,000 feet AGL
Clouds: sky clear below 12,000 feet AGL
Weather: no significant weather observed at this time

METAR text: EKYT 201920Z AUTO 00000KT 9999 NCD 10/02 Q1030
Conditions at: EKYT (ALBORG , DK) observed 1920 UTC 20 April 2019
Temperature: 10.0°C (50°F)
Dewpoint: 2.0°C (36°F) [RH = 57%]
Pressure (altimeter): 30.41 inches Hg (1030.0 mb)
Winds: calm
Visibility: 6 or more miles (10+ km)
Ceiling: at least 12,000 feet AGL
Clouds: sky clear below 12,000 feet AGL
Weather: no significant weather observed at this time

METAR text: EKYT 201850Z AUTO 31002KT 9999 NCD 11/02 Q1031
Conditions at: EKYT (ALBORG , DK) observed 1850 UTC 20 April 2019
Temperature: 11.0°C (52°F)
Dewpoint: 2.0°C (36°F) [RH = 54%]
Pressure (altimeter): 30.44 inches Hg (1031.0 mb)
Winds: from the NW (310 degrees) at 2 MPH (2 knots; 1.0 m/s)
Visibility: 6 or more miles (10+ km)
Ceiling: at least 12,000 feet AGL
Clouds: sky clear below 12,000 feet AGL
Weather: no significant weather observed at this time

METAR text: EKYT 201820Z AUTO 30004KT 9999 NCD 12/02 Q1031
Conditions at: EKYT (ALBORG , DK) observed 1820 UTC 20 April 2019
Temperature: 12.0°C (54°F)
Dewpoint: 2.0°C (36°F) [RH = 50%]
Pressure (altimeter): 30.44 inches Hg (1031.0 mb)
Winds: from the WNW (300 degrees) at 5 MPH (4 knots; 2.1 m/s)
Visibility: 6 or more miles (10+ km)
Ceiling: at least 12,000 feet AGL
Clouds: sky clear below 12,000 feet AGL
Weather: no significant weather observed at this time

METAR text: EKYT 201750Z AUTO 30005KT 9999 NCD 14/03 Q1031
Conditions at: EKYT (ALBORG , DK) observed 1750 UTC 20 April 2019
Temperature: 14.0°C (57°F)
Dewpoint: 3.0°C (37°F) [RH = 47%]
Pressure (altimeter): 30.44 inches Hg (1031.0 mb)
Winds: from the WNW (300 degrees) at 6 MPH (5 knots; 2.6 m/s)
Visibility: 6 or more miles (10+ km)
Ceiling: at least 12,000 feet AGL
Clouds: sky clear below 12,000 feet AGL
Weather: no significant weather observed at this time

METAR text: EKYT 201720Z AUTO 30004KT 9999 NCD 15/02 Q1031
Conditions at: EKYT (ALBORG , DK) observed 1720 UTC 20 April 2019
Temperature: 15.0°C (59°F)
Dewpoint: 2.0°C (36°F) [RH = 41%]
Pressure (altimeter): 30.44 inches Hg (1031.0 mb)
Winds: from the WNW (300 degrees) at 5 MPH (4 knots; 2.1 m/s)
Visibility: 6 or more miles (10+ km)
Ceiling: at least 12,000 feet AGL
Clouds: sky clear below 12,000 feet AGL
Weather: no significant weather observed at this time

METAR text: EKYT 201650Z AUTO 32007KT 9999 NCD 16/01 Q1031
Conditions at: EKYT (ALBORG , DK) observed 1650 UTC 20 April 2019
Temperature: 16.0°C (61°F)
Dewpoint: 1.0°C (34°F) [RH = 36%]
Pressure (altimeter): 30.44 inches Hg (1031.0 mb)
Winds: from the NW (320 degrees) at 8 MPH (7 knots; 3.6 m/s)
Visibility: 6 or more miles (10+ km)
Ceiling: at least 12,000 feet AGL
Clouds: sky clear below 12,000 feet AGL
Weather: no significant weather observed at this time

METAR text: EKYT 201620Z AUTO 31007KT 280V360 9999 NCD 17/01 Q1031
Conditions at: EKYT (ALBORG , DK) observed 1620 UTC 20 April 2019
Temperature: 17.0°C (63°F)
Dewpoint: 1.0°C (34°F) [RH = 34%]
Pressure (altimeter): 30.44 inches Hg (1031.0 mb)
Winds: from the NW (310 degrees) at 8 MPH (7 knots; 3.6 m/s)
Visibility: 6 or more miles (10+ km)
Ceiling: at least 12,000 feet AGL
Clouds: sky clear below 12,000 feet AGL
Weather: no significant weather observed at this time

METAR text: EKYT 201550Z AUTO 30007KT 270V360 9999 NCD 18/01 Q1031
Conditions at: EKYT (ALBORG , DK) observed 1550 UTC 20 April 2019
Temperature: 18.0°C (64°F)
Dewpoint: 1.0°C (34°F) [RH = 32%]
Pressure (altimeter): 30.44 inches Hg (1031.0 mb)
Winds: from the WNW (300 degrees) at 8 MPH (7 knots; 3.6 m/s)
Visibility: 6 or more miles (10+ km)
Ceiling: at least 12,000 feet AGL
Clouds: sky clear below 12,000 feet AGL
Weather: no significant weather observed at this time

METAR text: EKYT 201520Z AUTO 32007KT 290V360 9999 NCD 18/01 Q1032
Conditions at: EKYT (ALBORG , DK) observed 1520 UTC 20 April 2019
Temperature: 18.0°C (64°F)
Dewpoint: 1.0°C (34°F) [RH = 32%]
Pressure (altimeter): 30.47 inches Hg (1032.0 mb)
Winds: from the NW (320 degrees) at 8 MPH (7 knots; 3.6 m/s)
Visibility: 6 or more miles (10+ km)
Ceiling: at least 12,000 feet AGL
Clouds: sky clear below 12,000 feet AGL
Weather: no significant weather observed at this time

METAR text: EKYT 201450Z AUTO 31006KT 270V350 9999 NCD 18/01 Q1032
Conditions at: EKYT (ALBORG , DK) observed 1450 UTC 20 April 2019
Temperature: 18.0°C (64°F)
Dewpoint: 1.0°C (34°F) [RH = 32%]
Pressure (altimeter): 30.47 inches Hg (1032.0 mb)
Winds: from the NW (310 degrees) at 7 MPH (6 knots; 3.1 m/s)
Visibility: 6 or more miles (10+ km)
Ceiling: at least 12,000 feet AGL
Clouds: sky clear below 12,000 feet AGL
Weather: no significant weather observed at this time

Forecast for: EKYT (ALBORG , DK)
Text: TAF EKYT 220202Z 2203/2303 VRB06KT 9999 FEW200
Forecast period: 0300 to 0500 UTC 22 April 2019
Forecast type: FROM: standard forecast or significant change
Winds: variable direction winds at 7 MPH (6 knots; 3.1 m/s)
Visibility: 6 or more miles 10+ km)
Ceiling: at least 12,000 feet AGL
Clouds: few clouds at 20000 feet AGL
Weather: no significant weather forecast for this period
Text: BECMG 2205/2208 11010KT
Forecast period: 0500 UTC 22 April 2019 to 0300 UTC 23 April 2019
Forecast type: BECOMING: Conditions expected to become as follows by 0800 UTC 22 April 2019
Winds: from the ESE (110 degrees) at 12 MPH (10 knots; 5.1 m/s)
Visibility: 6 or more miles 10+ km)
Ceiling: at least 12,000 feet AGL
Clouds: few clouds at 20000 feet AGL
Weather: no significant weather forecast for this period
Text: TEMPO 2211/2217 12012G24KT
Forecast period: 1100 to 1700 UTC 22 April 2019
Forecast type: TEMPORARY: The following changes expected for less than half the time period
Winds: from the ESE (120 degrees) at 14 MPH (12 knots; 6.2 m/s)
gusting to 28 MPH (24 knots; 12.3 m/s)
Visibility: missing
Ceiling: unknown
Clouds: missing
Weather: no significant weather forecast for this period